createdAt,value
2018-05-14T14:13:40.618Z,4865.63
2018-05-14T14:14:40.598Z,5242.50
2018-05-14T14:15:40.598Z,1462.50
2018-05-14T14:16:40.661Z,1288.13
2018-05-14T14:17:40.585Z,978.75
2018-05-14T14:18:40.567Z,916.88
2018-05-14T14:19:40.560Z,950.63
2018-05-14T14:20:40.561Z,1023.75
2018-05-14T14:21:40.544Z,2041.88
2018-05-14T14:22:40.539Z,1535.63
2018-05-14T14:23:40.669Z,4185.00
2018-05-14T14:24:40.521Z,2306.25
2018-05-14T14:25:40.531Z,4758.75
2018-05-14T14:26:40.508Z,4871.25
2018-05-14T14:27:40.501Z,5220.00
2018-05-14T14:28:40.490Z,5602.50
2018-05-14T14:29:40.492Z,5338.13
2018-05-14T14:30:40.477Z,5113.13
2018-05-14T14:31:40.484Z,5371.88
2018-05-14T14:32:40.463Z,5501.25
2018-05-14T14:33:40.453Z,5456.25
2018-05-14T14:34:40.450Z,5242.50
2018-05-14T14:35:40.440Z,5017.50
2018-05-14T14:36:40.432Z,5045.63
2018-05-14T14:37:40.439Z,5265.00
2018-05-14T14:38:40.420Z,5366.25
2018-05-14T14:39:40.414Z,5315.63
2018-05-14T14:40:40.408Z,5326.88
2018-05-14T14:41:40.404Z,5107.50
2018-05-14T14:42:40.409Z,5017.50
2018-05-14T14:43:40.393Z,4820.63
2018-05-14T14:44:40.386Z,1029.38
2018-05-14T14:45:40.383Z,888.75
2018-05-14T14:46:40.378Z,815.63
2018-05-14T14:47:40.385Z,770.63
2018-05-14T14:48:40.370Z,759.38
2018-05-14T14:49:40.362Z,731.25
2018-05-14T14:50:40.361Z,725.63
2018-05-14T14:51:40.349Z,742.50
2018-05-14T14:52:40.345Z,759.38
2018-05-14T14:53:40.397Z,793.13
2018-05-14T14:54:40.332Z,815.63
2018-05-14T14:55:40.330Z,832.50
2018-05-14T14:56:40.317Z,849.38
2018-05-14T14:57:40.311Z,860.63
2018-05-14T14:58:40.305Z,905.63
2018-05-14T14:59:40.306Z,950.63
2018-05-14T15:00:40.289Z,866.25
2018-05-14T15:01:40.285Z,798.75
2018-05-14T15:02:40.274Z,736.88
2018-05-14T15:03:40.266Z,669.38
2018-05-14T15:04:40.266Z,624.38
2018-05-14T15:05:40.250Z,607.50
2018-05-14T15:06:40.242Z,596.25
2018-05-14T15:07:40.234Z,601.88
2018-05-14T15:08:40.225Z,618.75
2018-05-14T15:09:40.228Z,641.25
2018-05-14T15:10:40.213Z,652.50
2018-05-14T15:11:40.201Z,663.75
2018-05-14T15:12:40.191Z,680.63
2018-05-14T15:13:40.183Z,697.50
2018-05-14T15:14:40.188Z,720.00
2018-05-14T15:15:40.164Z,753.75
2018-05-14T15:16:40.159Z,804.38
2018-05-14T15:17:40.148Z,866.25
2018-05-14T15:18:40.139Z,1327.50
2018-05-14T15:19:40.129Z,1299.38
2018-05-14T15:20:40.144Z,2992.50
2018-05-14T15:21:40.113Z,2610.00
2018-05-14T15:22:40.104Z,3043.13
2018-05-14T15:23:40.095Z,3335.63
2018-05-14T15:24:40.087Z,1350.00
2018-05-14T15:25:40.078Z,2300.63
2018-05-14T15:26:40.078Z,3307.50
2018-05-14T15:27:40.061Z,3251.25
2018-05-14T15:28:40.051Z,3195.00
2018-05-14T15:29:40.113Z,3341.25
2018-05-14T15:30:40.042Z,3459.38
2018-05-14T15:31:40.038Z,3442.50
2018-05-14T15:32:40.029Z,3414.38
2018-05-14T15:33:40.015Z,3341.25
2018-05-14T15:34:40.011Z,3335.63
2018-05-14T15:35:40.005Z,3296.25
2018-05-14T15:36:40.270Z,3262.50
2018-05-14T15:37:39.994Z,3251.25
2018-05-14T15:38:39.990Z,3223.13
2018-05-14T15:39:39.982Z,3223.13
2018-05-14T15:40:39.979Z,2520.00
2018-05-14T15:41:39.977Z,1614.38
2018-05-14T15:42:39.987Z,3240.00
2018-05-14T15:43:39.969Z,3240.00
2018-05-14T15:44:39.965Z,3268.13
2018-05-14T15:45:39.963Z,3375.00
2018-05-14T15:46:39.960Z,3459.38
2018-05-14T15:47:39.956Z,3403.13
2018-05-14T15:48:39.963Z,3076.88
2018-05-14T15:49:39.951Z,2621.25
2018-05-14T15:50:39.949Z,3690.00
2018-05-14T15:51:39.946Z,3751.88
2018-05-14T15:52:39.943Z,3656.25
2018-05-14T15:53:39.960Z,3605.63
2018-05-14T15:54:39.941Z,3498.75
2018-05-14T15:55:39.938Z,3476.25
2018-05-14T15:56:39.937Z,3386.25
2018-05-14T15:57:39.936Z,3256.88
2018-05-14T15:58:39.948Z,1299.38
2018-05-14T15:59:39.935Z,961.88
2018-05-14T16:00:39.933Z,1726.88
2018-05-14T16:01:39.931Z,1192.50
2018-05-14T16:02:39.936Z,855.00
2018-05-14T16:03:39.928Z,838.13
2018-05-14T16:04:39.934Z,1603.13
2018-05-14T16:05:39.920Z,1473.75
2018-05-14T16:06:39.919Z,3071.25
2018-05-14T16:07:39.914Z,3088.13
2018-05-14T16:08:39.933Z,3082.50
2018-05-14T16:09:39.922Z,2947.50
2018-05-14T16:10:39.906Z,2773.13
2018-05-14T16:11:39.901Z,2801.25
2018-05-14T16:12:39.900Z,1012.50
2018-05-14T16:13:39.897Z,691.88
2018-05-14T16:14:39.992Z,675.00
2018-05-14T16:15:39.896Z,686.25
2018-05-14T16:16:39.885Z,1029.38
2018-05-14T16:17:39.880Z,2340.00
2018-05-14T16:18:39.882Z,2671.88
2018-05-14T16:19:39.873Z,2688.75
2018-05-14T16:20:39.877Z,2497.50
2018-05-14T16:21:39.869Z,2621.25
2018-05-14T16:22:39.862Z,2671.88
2018-05-14T16:23:39.857Z,2694.38
2018-05-14T16:24:39.852Z,2745.00
2018-05-14T16:25:39.867Z,2745.00
2018-05-14T16:26:39.872Z,2756.25
2018-05-14T16:27:39.841Z,2722.50
2018-05-14T16:28:39.841Z,2565.00
2018-05-14T16:29:39.838Z,2396.25
2018-05-14T16:30:39.836Z,2272.50
2018-05-14T16:31:39.840Z,2165.63
2018-05-14T16:32:39.830Z,2053.13
2018-05-14T16:33:39.827Z,1276.88
2018-05-14T16:34:39.825Z,500.63
2018-05-14T16:35:39.823Z,433.13
2018-05-14T16:36:39.835Z,376.88
2018-05-14T16:37:39.820Z,337.50
2018-05-14T16:38:39.816Z,337.50
2018-05-14T16:39:39.812Z,320.63
2018-05-14T16:40:39.813Z,315.00
2018-05-14T16:41:39.806Z,309.38
2018-05-14T16:42:39.813Z,298.13
2018-05-14T16:43:39.796Z,292.50
2018-05-14T16:44:39.792Z,286.88
2018-05-14T16:45:39.786Z,292.50
2018-05-14T16:46:39.784Z,298.13
2018-05-14T16:47:39.786Z,298.13
2018-05-14T16:48:39.770Z,303.75
2018-05-14T16:49:39.766Z,303.75
2018-05-14T16:50:39.760Z,309.38
2018-05-14T16:51:39.751Z,315.00
2018-05-14T16:52:39.758Z,320.63
2018-05-14T16:53:39.739Z,326.25
2018-05-14T16:54:39.734Z,337.50
2018-05-14T16:55:39.724Z,343.13
2018-05-14T16:56:39.719Z,343.13
2018-05-14T16:57:39.768Z,337.50
2018-05-14T16:58:39.712Z,343.13
2018-05-14T16:59:39.694Z,354.38
2018-05-14T17:00:39.686Z,360.00
2018-05-14T17:01:39.679Z,365.63
2018-05-14T17:02:39.671Z,365.63
2018-05-14T17:03:39.696Z,360.00
2018-05-14T17:04:39.661Z,348.75
2018-05-14T17:05:39.649Z,343.13
2018-05-14T17:06:39.637Z,337.50
2018-05-14T17:07:39.627Z,343.13
2018-05-14T17:08:39.620Z,348.75
2018-05-14T17:09:39.624Z,360.00
2018-05-14T17:10:39.604Z,371.25
2018-05-14T17:11:39.592Z,382.50
2018-05-14T17:12:39.585Z,399.38
2018-05-14T17:13:39.576Z,405.00
2018-05-14T17:14:39.578Z,461.25
2018-05-14T17:15:39.555Z,1327.50
2018-05-14T17:16:39.550Z,1288.13
2018-05-14T17:17:39.550Z,1316.25
2018-05-14T17:18:39.529Z,1276.88
2018-05-14T17:19:39.536Z,770.63
2018-05-14T17:20:39.512Z,1046.25
2018-05-14T17:21:39.503Z,1170.00
2018-05-14T17:22:39.496Z,1231.88
2018-05-14T17:23:39.498Z,1181.25
2018-05-14T17:24:39.480Z,427.50
2018-05-14T17:25:39.482Z,1192.50
2018-05-14T17:26:39.472Z,1164.38
2018-05-14T17:27:39.455Z,1119.38
2018-05-14T17:28:39.451Z,916.88
2018-05-14T17:29:39.442Z,1130.63
2018-05-14T17:30:39.451Z,1130.63
2018-05-14T17:31:39.430Z,635.63
2018-05-14T17:32:39.422Z,613.13
2018-05-14T17:33:39.415Z,1085.63
2018-05-14T17:34:39.410Z,1085.63
2018-05-14T17:35:39.402Z,1136.25
2018-05-14T17:36:39.405Z,1164.38
2018-05-14T17:37:39.391Z,1164.38
2018-05-14T17:38:39.385Z,1170.00
2018-05-14T17:39:39.378Z,1153.13
2018-05-14T17:40:39.371Z,1130.63
2018-05-14T17:41:39.379Z,1141.88
2018-05-14T17:42:39.361Z,1136.25
2018-05-14T17:43:39.356Z,1074.38
2018-05-14T17:44:39.353Z,978.75
2018-05-14T17:45:39.350Z,928.13
2018-05-14T17:46:39.356Z,866.25
2018-05-14T17:47:39.335Z,826.88
2018-05-14T17:48:39.330Z,691.88
2018-05-14T17:49:39.322Z,607.50
2018-05-14T17:50:39.318Z,562.50
2018-05-14T17:51:39.312Z,545.63
2018-05-14T17:52:39.316Z,528.75
2018-05-14T17:53:39.300Z,534.38
2018-05-14T17:54:39.300Z,540.00
2018-05-14T17:55:39.287Z,534.38
2018-05-14T17:56:39.281Z,523.13
2018-05-14T17:57:39.287Z,506.25
2018-05-14T17:58:39.272Z,495.00
2018-05-14T17:59:39.259Z,472.50
2018-05-14T18:00:39.254Z,461.25
2018-05-14T18:01:39.245Z,455.63
2018-05-14T18:02:39.238Z,444.38
2018-05-14T18:03:39.245Z,427.50
2018-05-14T18:04:39.222Z,405.00
2018-05-14T18:05:39.215Z,376.88
2018-05-14T18:06:39.206Z,354.38
2018-05-14T18:07:39.198Z,337.50
2018-05-14T18:08:39.191Z,320.63
2018-05-14T18:09:39.477Z,298.13
2018-05-14T18:10:39.293Z,281.25
2018-05-14T18:11:39.165Z,270.00
2018-05-14T18:12:39.159Z,264.38
2018-05-14T18:13:39.150Z,253.13
2018-05-14T18:14:39.139Z,241.88
2018-05-14T18:15:39.141Z,236.25
2018-05-14T18:16:39.127Z,230.63
2018-05-14T18:17:39.181Z,225.00
2018-05-14T18:18:39.105Z,219.38
2018-05-14T18:19:39.093Z,219.38
2018-05-14T18:20:39.096Z,219.38
2018-05-14T18:21:39.078Z,208.13
2018-05-14T18:22:39.148Z,196.88
2018-05-14T18:23:39.061Z,180.00
2018-05-14T18:24:39.049Z,168.75
2018-05-14T18:25:39.047Z,163.13
2018-05-14T18:26:39.031Z,157.50
2018-05-14T18:27:39.019Z,146.25
2018-05-14T18:28:39.011Z,140.63
2018-05-14T18:29:38.999Z,135.00
2018-05-14T18:30:38.998Z,129.38
2018-05-14T18:31:38.980Z,123.75
2018-05-14T18:32:38.969Z,118.13
2018-05-14T18:33:38.960Z,112.50
2018-05-14T18:34:38.949Z,112.50
2018-05-14T18:35:38.947Z,106.88
2018-05-14T18:36:38.930Z,101.25
2018-05-14T18:37:38.918Z,95.63
2018-05-14T18:38:38.913Z,95.63
2018-05-14T18:39:38.899Z,90.00
2018-05-14T18:40:38.899Z,90.00
2018-05-14T18:41:38.876Z,84.38
2018-05-14T18:42:38.865Z,84.38
2018-05-14T18:43:38.851Z,84.38
2018-05-14T18:44:38.842Z,84.38
2018-05-14T18:45:38.832Z,78.75
2018-05-14T18:46:38.869Z,78.75
2018-05-14T18:47:38.813Z,78.75
2018-05-14T18:48:38.798Z,78.75
2018-05-14T18:49:38.789Z,73.13
2018-05-14T18:50:38.776Z,73.13
2018-05-14T18:51:38.780Z,67.50
2018-05-14T18:52:38.754Z,67.50
2018-05-14T18:53:38.743Z,61.88
2018-05-14T18:54:38.733Z,61.88
2018-05-14T18:55:38.721Z,56.25
2018-05-14T18:56:38.709Z,50.63
2018-05-14T18:57:38.713Z,45.00
2018-05-14T18:58:38.689Z,45.00
2018-05-14T18:59:38.674Z,39.38
2018-05-14T19:00:38.663Z,39.38
2018-05-14T19:01:38.653Z,33.75
2018-05-14T19:02:38.650Z,33.75
2018-05-14T19:03:38.628Z,28.13
2018-05-14T19:04:38.616Z,28.13
2018-05-14T19:05:38.606Z,28.13
2018-05-14T19:06:38.593Z,22.50
2018-05-14T19:07:38.595Z,22.50
2018-05-14T19:08:38.584Z,22.50
2018-05-14T19:09:38.561Z,16.88
2018-05-14T19:10:38.547Z,16.88
2018-05-14T19:11:38.534Z,16.88
2018-05-14T19:12:38.523Z,11.25
2018-05-14T19:13:38.521Z,11.25
2018-05-14T19:14:38.500Z,11.25
2018-05-14T19:15:38.486Z,11.25
2018-05-14T19:16:38.475Z,11.25
2018-05-14T19:17:38.462Z,11.25
2018-05-14T19:18:38.546Z,5.63
2018-05-14T19:19:38.437Z,5.63
2018-05-14T19:20:38.428Z,5.63
2018-05-14T19:21:38.414Z,5.63
2018-05-14T19:22:38.402Z,5.63
2018-05-14T19:23:38.403Z,5.63
2018-05-14T19:24:38.377Z,5.63
2018-05-14T19:25:38.367Z,0.00
2018-05-14T19:26:38.354Z,0.00
2018-05-14T19:27:38.340Z,0.00
2018-05-14T19:28:38.340Z,0.00
2018-05-14T19:29:38.318Z,0.00
2018-05-14T19:30:38.304Z,0.00
2018-05-14T19:31:38.291Z,0.00
2018-05-14T19:32:38.280Z,0.00
2018-05-14T19:33:38.284Z,0.00
2018-05-14T19:34:38.255Z,0.00
